createdAt,value
2023-07-31T00:01:39.940Z,17.82
2023-07-31T00:04:06.924Z,17.87
2023-07-31T00:06:35.594Z,17.80
2023-07-31T00:09:02.469Z,17.71
2023-07-31T00:11:29.520Z,17.70
2023-07-31T00:13:56.425Z,17.68
2023-07-31T00:16:23.439Z,17.67
2023-07-31T00:18:50.399Z,17.58
2023-07-31T00:21:17.497Z,17.55
2023-07-31T00:23:44.346Z,17.56
2023-07-31T00:26:11.296Z,17.53
2023-07-31T00:28:38.261Z,17.50
2023-07-31T00:31:05.188Z,17.45
2023-07-31T00:33:32.909Z,17.46
2023-07-31T00:35:59.795Z,17.42
2023-07-31T00:38:26.714Z,17.37
2023-07-31T00:40:53.617Z,17.36
2023-07-31T00:43:20.682Z,17.38
2023-07-31T00:45:47.650Z,17.36
2023-07-31T00:48:14.522Z,17.36
2023-07-31T00:50:42.244Z,17.38
2023-07-31T00:53:09.285Z,17.44
2023-07-31T00:55:36.434Z,17.34
2023-07-31T00:58:03.289Z,17.30
2023-07-31T01:00:30.266Z,17.30
2023-07-31T01:02:57.647Z,17.35
2023-07-31T01:05:37.774Z,17.41
2023-07-31T01:08:24.364Z,17.44
2023-07-31T01:10:58.525Z,17.50
2023-07-31T01:13:25.898Z,17.55
2023-07-31T01:15:53.141Z,17.57
2023-07-31T01:18:22.110Z,17.50
2023-07-31T01:20:57.789Z,17.51
2023-07-31T01:23:46.213Z,17.47
2023-07-31T01:26:19.981Z,17.48
2023-07-31T01:29:11.677Z,17.47
2023-07-31T01:31:40.913Z,17.58
2023-07-31T01:34:11.206Z,17.53
2023-07-31T01:36:38.699Z,17.60
2023-07-31T01:39:05.918Z,17.65
2023-07-31T01:41:32.737Z,17.63
2023-07-31T01:43:59.669Z,17.59
2023-07-31T01:46:26.618Z,17.59
2023-07-31T01:48:53.629Z,17.52
2023-07-31T01:51:20.740Z,17.55
2023-07-31T01:53:47.641Z,17.54
2023-07-31T01:56:14.599Z,17.51
2023-07-31T01:58:41.648Z,17.55
2023-07-31T02:01:08.624Z,17.57
2023-07-31T02:03:35.902Z,17.55
2023-07-31T02:06:03.058Z,17.50
2023-07-31T02:08:30.024Z,17.51
2023-07-31T02:10:57.498Z,17.50
2023-07-31T02:13:24.510Z,17.49
2023-07-31T02:15:52.880Z,17.46
2023-07-31T02:18:19.789Z,17.41
2023-07-31T02:20:53.526Z,17.44
2023-07-31T02:23:20.936Z,17.33
2023-07-31T02:25:48.117Z,17.24
2023-07-31T02:28:15.839Z,17.33
2023-07-31T02:30:47.393Z,17.27
2023-07-31T02:33:15.636Z,17.29
2023-07-31T02:35:42.625Z,17.29
2023-07-31T02:38:09.548Z,17.27
2023-07-31T02:40:36.454Z,17.25
2023-07-31T02:43:03.620Z,17.22
2023-07-31T02:45:30.521Z,17.18
2023-07-31T02:47:57.414Z,17.14
2023-07-31T02:50:24.593Z,17.11
2023-07-31T02:52:51.728Z,17.13
2023-07-31T02:55:18.614Z,17.12
2023-07-31T02:57:45.686Z,17.13
2023-07-31T03:00:12.777Z,17.12
2023-07-31T03:02:39.871Z,17.11
2023-07-31T03:05:07.522Z,17.11
2023-07-31T03:07:34.419Z,17.09
2023-07-31T03:10:01.281Z,17.06
2023-07-31T03:12:28.865Z,17.07
2023-07-31T03:14:55.696Z,17.05
2023-07-31T03:17:22.601Z,17.04
2023-07-31T03:19:49.693Z,17.05
2023-07-31T03:22:16.594Z,17.06
2023-07-31T03:24:43.680Z,17.03
2023-07-31T03:27:10.870Z,16.91
2023-07-31T03:29:38.050Z,16.84
2023-07-31T03:32:05.329Z,16.80
2023-07-31T03:34:33.223Z,16.85
2023-07-31T03:37:00.188Z,16.90
2023-07-31T03:39:27.055Z,16.79
2023-07-31T03:41:54.927Z,16.81
2023-07-31T03:44:22.191Z,16.85
2023-07-31T03:46:49.086Z,16.86
2023-07-31T03:49:16.062Z,16.91
2023-07-31T03:51:43.106Z,16.94
2023-07-31T03:54:10.226Z,17.03
2023-07-31T03:56:37.206Z,17.04
2023-07-31T03:59:04.045Z,17.07
2023-07-31T04:01:30.973Z,17.08
2023-07-31T04:03:57.958Z,17.08
2023-07-31T04:06:24.976Z,17.09
2023-07-31T04:08:52.093Z,17.07
2023-07-31T04:11:19.196Z,17.11
2023-07-31T04:13:46.161Z,17.15
2023-07-31T04:16:13.130Z,17.21
2023-07-31T04:18:40.147Z,17.23
2023-07-31T04:21:07.056Z,17.25
2023-07-31T04:23:34.066Z,17.28
2023-07-31T04:26:00.985Z,17.30
2023-07-31T04:28:28.031Z,17.30
2023-07-31T04:30:55.034Z,17.31
2023-07-31T04:33:22.285Z,17.32
2023-07-31T04:35:53.735Z,17.39
2023-07-31T04:38:23.081Z,17.39
2023-07-31T04:40:50.190Z,17.39
2023-07-31T04:43:17.577Z,17.37
2023-07-31T04:45:48.109Z,17.35
2023-07-31T04:48:15.709Z,17.36
2023-07-31T04:50:42.653Z,17.39
2023-07-31T04:53:09.612Z,17.42
2023-07-31T04:55:36.492Z,17.48
2023-07-31T04:58:03.543Z,17.54
2023-07-31T05:00:30.900Z,17.55
2023-07-31T05:02:58.010Z,17.59
2023-07-31T05:05:25.068Z,17.63
2023-07-31T05:07:52.388Z,17.72
2023-07-31T05:10:19.367Z,17.73
2023-07-31T05:12:46.208Z,17.73
2023-07-31T05:15:13.186Z,17.81
2023-07-31T05:17:40.279Z,17.75
2023-07-31T05:20:08.096Z,17.69
2023-07-31T05:22:35.229Z,17.72
2023-07-31T05:25:02.138Z,17.77
2023-07-31T05:27:29.117Z,17.76
2023-07-31T05:29:56.026Z,17.71
2023-07-31T05:32:23.009Z,17.70
2023-07-31T05:34:53.444Z,17.70
2023-07-31T05:37:20.828Z,17.78
2023-07-31T05:39:47.658Z,17.78
2023-07-31T05:42:14.524Z,17.81
2023-07-31T05:44:41.515Z,17.80
2023-07-31T05:47:08.385Z,17.82
2023-07-31T05:49:35.396Z,17.87
2023-07-31T05:52:02.437Z,17.87
2023-07-31T05:54:29.318Z,17.88
2023-07-31T05:56:56.464Z,17.92
2023-07-31T05:59:23.328Z,17.99
2023-07-31T06:01:50.510Z,17.98
2023-07-31T06:04:17.723Z,17.99
2023-07-31T06:06:45.026Z,18.01
2023-07-31T06:09:12.897Z,18.04
2023-07-31T06:11:39.942Z,18.04
2023-07-31T06:14:06.823Z,18.08
2023-07-31T06:16:33.839Z,18.14
2023-07-31T06:19:00.934Z,18.15
2023-07-31T06:21:27.893Z,18.20
2023-07-31T06:23:54.960Z,18.26
2023-07-31T06:26:22.099Z,18.21
2023-07-31T06:28:49.054Z,18.28
2023-07-31T06:31:16.093Z,18.34
2023-07-31T06:33:42.996Z,18.49
2023-07-31T06:36:10.214Z,18.61
2023-07-31T06:38:38.473Z,18.68
2023-07-31T06:41:05.302Z,18.78
2023-07-31T06:43:32.367Z,18.74
2023-07-31T06:45:59.230Z,18.70
2023-07-31T06:48:26.178Z,18.65
2023-07-31T06:50:53.162Z,18.52
2023-07-31T06:53:20.028Z,18.55
2023-07-31T06:55:49.466Z,18.54
2023-07-31T06:58:16.493Z,18.52
2023-07-31T07:00:43.365Z,18.48
2023-07-31T07:03:10.425Z,18.46
2023-07-31T07:05:37.563Z,18.57
2023-07-31T07:08:04.742Z,18.66
2023-07-31T07:10:31.756Z,18.79
2023-07-31T07:12:58.769Z,18.87
2023-07-31T07:15:25.974Z,18.80
2023-07-31T07:17:52.954Z,18.84
2023-07-31T07:20:21.502Z,18.85
2023-07-31T07:22:48.318Z,18.81
2023-07-31T07:25:15.197Z,18.93
2023-07-31T07:27:42.318Z,19.07
2023-07-31T07:30:09.897Z,19.27
2023-07-31T07:32:36.882Z,19.25
2023-07-31T07:35:04.050Z,19.14
2023-07-31T07:37:31.450Z,19.21
2023-07-31T07:39:59.483Z,19.35
2023-07-31T07:42:26.501Z,19.43
2023-07-31T07:44:53.425Z,19.65
2023-07-31T07:47:20.721Z,19.93
2023-07-31T07:49:52.647Z,19.87
2023-07-31T07:52:20.678Z,19.77
2023-07-31T07:54:47.790Z,19.69
2023-07-31T07:57:14.685Z,19.55
2023-07-31T07:59:42.312Z,19.48
2023-07-31T08:02:09.325Z,19.41
2023-07-31T08:04:36.202Z,19.27
2023-07-31T08:07:03.359Z,19.31
2023-07-31T08:09:30.403Z,19.37
2023-07-31T08:12:02.922Z,19.43
2023-07-31T08:14:32.870Z,19.53
2023-07-31T08:17:01.383Z,19.65
2023-07-31T08:19:28.415Z,19.62
2023-07-31T08:21:57.930Z,19.64
2023-07-31T08:24:25.640Z,19.63
2023-07-31T08:26:52.528Z,19.68
2023-07-31T08:29:19.571Z,19.90
2023-07-31T08:31:46.692Z,19.96
2023-07-31T08:34:13.575Z,20.36
2023-07-31T08:36:40.920Z,20.81
2023-07-31T08:39:08.297Z,21.30
2023-07-31T08:41:40.409Z,21.67
2023-07-31T08:44:08.772Z,21.68
2023-07-31T08:46:36.316Z,21.55
2023-07-31T08:49:06.266Z,21.53
2023-07-31T08:51:35.468Z,21.42
2023-07-31T08:54:05.299Z,20.99
2023-07-31T08:56:33.678Z,20.89
2023-07-31T08:59:03.659Z,20.64
2023-07-31T09:01:32.380Z,20.52
2023-07-31T09:04:03.007Z,20.51
2023-07-31T09:06:32.081Z,20.68
2023-07-31T09:08:59.129Z,20.53
2023-07-31T09:11:26.647Z,20.33
2023-07-31T09:13:54.592Z,20.36
2023-07-31T09:16:29.523Z,20.69
2023-07-31T09:18:58.262Z,21.17
2023-07-31T09:21:27.141Z,21.48
2023-07-31T09:23:55.455Z,21.42
2023-07-31T09:26:34.176Z,21.45
2023-07-31T09:29:03.012Z,21.22
2023-07-31T09:31:40.488Z,20.95
2023-07-31T09:34:08.218Z,21.12
2023-07-31T09:36:44.594Z,21.16
2023-07-31T09:39:12.571Z,21.33
2023-07-31T09:41:45.407Z,21.43
2023-07-31T09:44:12.785Z,21.05
2023-07-31T09:46:40.515Z,20.65
2023-07-31T09:49:12.020Z,20.52
2023-07-31T09:51:40.717Z,20.80
2023-07-31T09:54:15.400Z,21.31
2023-07-31T09:56:47.602Z,21.61
2023-07-31T09:59:17.084Z,21.70
2023-07-31T10:01:47.155Z,21.81
2023-07-31T10:04:20.750Z,21.76
2023-07-31T10:06:51.332Z,21.53
2023-07-31T10:09:20.086Z,21.31
2023-07-31T10:11:54.449Z,21.25
2023-07-31T10:14:22.809Z,21.42
2023-07-31T10:16:50.713Z,21.39
2023-07-31T10:19:19.997Z,21.28
2023-07-31T10:21:49.719Z,21.25
2023-07-31T10:24:17.544Z,21.01
2023-07-31T10:26:47.963Z,21.06
2023-07-31T10:29:18.572Z,21.30
2023-07-31T10:31:47.392Z,21.69
2023-07-31T10:34:15.566Z,21.66
2023-07-31T10:36:42.524Z,21.42
2023-07-31T10:39:37.258Z,21.21
2023-07-31T10:42:14.730Z,20.79
2023-07-31T10:44:46.463Z,20.55
2023-07-31T10:47:16.624Z,20.67
2023-07-31T10:49:46.939Z,21.14
2023-07-31T10:52:15.239Z,21.37
2023-07-31T10:54:42.255Z,21.67
2023-07-31T10:57:23.237Z,22.27
2023-07-31T10:59:51.603Z,22.75
2023-07-31T11:02:32.737Z,23.18
2023-07-31T11:05:10.587Z,22.78
2023-07-31T11:07:50.634Z,22.97
2023-07-31T11:10:19.294Z,23.16
2023-07-31T11:12:47.738Z,23.42
2023-07-31T11:15:14.904Z,23.37
2023-07-31T11:17:42.468Z,23.07
2023-07-31T11:20:09.854Z,22.48
2023-07-31T11:22:37.396Z,21.96
2023-07-31T11:25:05.397Z,21.90
2023-07-31T11:27:32.492Z,21.98
2023-07-31T11:30:03.722Z,22.16
2023-07-31T11:32:31.125Z,22.04
2023-07-31T11:34:58.213Z,22.00
2023-07-31T11:37:25.296Z,21.65
2023-07-31T11:40:10.702Z,21.61
2023-07-31T11:42:37.663Z,21.83
2023-07-31T11:45:09.102Z,21.84
2023-07-31T11:47:38.251Z,21.71
2023-07-31T11:50:07.396Z,21.75
2023-07-31T11:52:43.379Z,22.00
2023-07-31T11:55:11.329Z,22.36
2023-07-31T11:57:40.910Z,22.76
2023-07-31T12:00:12.195Z,22.71
2023-07-31T12:02:41.115Z,22.48
2023-07-31T12:05:12.644Z,22.68
2023-07-31T12:07:50.738Z,22.71
2023-07-31T12:10:29.486Z,22.44
2023-07-31T12:13:16.248Z,22.24
2023-07-31T12:15:46.909Z,22.14
2023-07-31T12:18:21.461Z,22.19
2023-07-31T12:20:50.770Z,22.61
2023-07-31T12:23:31.752Z,23.05
2023-07-31T12:26:18.128Z,23.26
2023-07-31T12:28:47.476Z,22.95
2023-07-31T12:31:18.543Z,22.68
2023-07-31T12:33:46.595Z,22.40
2023-07-31T12:36:18.509Z,22.01
2023-07-31T12:38:47.368Z,21.84
2023-07-31T12:41:14.736Z,21.90
2023-07-31T12:43:43.676Z,21.96
2023-07-31T12:46:11.376Z,22.27
2023-07-31T12:48:39.950Z,22.26
2023-07-31T12:51:10.681Z,22.54
2023-07-31T12:53:37.747Z,22.65
2023-07-31T12:56:05.072Z,22.86
2023-07-31T12:58:32.226Z,22.91
2023-07-31T13:00:59.415Z,22.63
2023-07-31T13:03:26.581Z,22.18
2023-07-31T13:05:54.170Z,21.81
2023-07-31T13:08:21.498Z,21.67
2023-07-31T13:10:48.491Z,21.70
2023-07-31T13:13:15.445Z,21.81
2023-07-31T13:15:43.515Z,22.18
2023-07-31T13:18:10.868Z,22.64
2023-07-31T13:20:37.705Z,22.73
2023-07-31T13:23:05.907Z,23.04
2023-07-31T13:25:32.996Z,23.20
2023-07-31T13:28:02.120Z,23.31
2023-07-31T13:30:30.575Z,23.49
2023-07-31T13:32:57.550Z,23.51
2023-07-31T13:35:24.494Z,23.62
2023-07-31T13:37:52.035Z,23.57
2023-07-31T13:40:19.075Z,23.46
2023-07-31T13:42:47.111Z,23.04
2023-07-31T13:45:14.289Z,22.64
2023-07-31T13:47:41.263Z,22.60
2023-07-31T13:50:08.607Z,22.85
2023-07-31T13:52:35.663Z,23.19
2023-07-31T13:55:02.704Z,22.92
2023-07-31T13:57:29.777Z,22.87
2023-07-31T13:59:57.132Z,22.75
2023-07-31T14:02:24.063Z,22.79
2023-07-31T14:04:51.002Z,23.00
2023-07-31T14:07:18.951Z,22.95
2023-07-31T14:09:45.849Z,23.03
2023-07-31T14:12:12.778Z,22.70
2023-07-31T14:14:39.798Z,22.32
2023-07-31T14:17:07.186Z,22.03
2023-07-31T14:19:34.631Z,21.70
2023-07-31T14:22:11.164Z,21.54
2023-07-31T14:24:39.461Z,21.64
2023-07-31T14:27:06.772Z,21.63
2023-07-31T14:29:33.691Z,21.70
2023-07-31T14:32:01.446Z,21.59
2023-07-31T14:34:28.980Z,21.82
2023-07-31T14:36:55.854Z,22.04
2023-07-31T14:39:22.985Z,22.02
2023-07-31T14:41:50.652Z,21.89
2023-07-31T14:44:17.559Z,21.94
2023-07-31T14:46:44.642Z,21.79
2023-07-31T14:49:12.273Z,21.50
2023-07-31T14:51:39.376Z,21.32
2023-07-31T14:54:06.296Z,21.20
2023-07-31T14:56:33.427Z,21.21
2023-07-31T14:59:00.314Z,21.18
2023-07-31T15:01:27.386Z,21.23
2023-07-31T15:03:54.563Z,21.13
2023-07-31T15:06:21.838Z,20.96
2023-07-31T15:08:48.766Z,20.87
2023-07-31T15:11:17.221Z,20.81
2023-07-31T15:13:44.677Z,20.74
2023-07-31T15:16:11.690Z,20.72
2023-07-31T15:18:39.153Z,20.82
2023-07-31T15:21:08.031Z,20.81
2023-07-31T15:23:35.157Z,20.97
2023-07-31T15:26:02.711Z,21.02
2023-07-31T15:28:29.842Z,21.03
2023-07-31T15:30:56.871Z,21.23
2023-07-31T15:33:24.023Z,21.26
2023-07-31T15:35:50.897Z,21.42
2023-07-31T15:38:17.705Z,21.43
2023-07-31T15:40:44.821Z,21.38
2023-07-31T15:43:11.720Z,21.11
2023-07-31T15:45:38.663Z,20.93
2023-07-31T15:48:05.994Z,21.01
2023-07-31T15:50:33.002Z,21.04
2023-07-31T15:52:59.955Z,21.02
2023-07-31T15:55:27.229Z,20.97
2023-07-31T15:57:54.311Z,20.98
2023-07-31T16:00:21.493Z,21.07
2023-07-31T16:02:49.623Z,21.15
2023-07-31T16:05:16.838Z,21.04
2023-07-31T16:07:43.772Z,20.95
2023-07-31T16:10:10.765Z,20.99
2023-07-31T16:12:37.710Z,20.99
2023-07-31T16:15:04.827Z,21.07
2023-07-31T16:17:32.014Z,21.03
2023-07-31T16:20:00.570Z,21.07
2023-07-31T16:22:28.424Z,21.02
2023-07-31T16:24:55.585Z,20.94
2023-07-31T16:27:25.824Z,20.85
2023-07-31T16:29:52.864Z,20.86
2023-07-31T16:32:20.089Z,20.71
2023-07-31T16:34:47.370Z,20.66
2023-07-31T16:37:14.263Z,20.59
2023-07-31T16:39:42.041Z,20.54
2023-07-31T16:42:09.147Z,20.56
2023-07-31T16:44:36.380Z,20.54
2023-07-31T16:47:03.999Z,20.42
2023-07-31T16:49:30.875Z,20.44
2023-07-31T16:51:58.851Z,20.47
2023-07-31T16:54:25.937Z,20.44
2023-07-31T16:56:59.289Z,20.42
2023-07-31T16:59:28.422Z,20.35
2023-07-31T17:01:59.857Z,20.30
2023-07-31T17:04:32.082Z,20.28
2023-07-31T17:06:59.455Z,20.30
2023-07-31T17:09:27.592Z,20.27
2023-07-31T17:11:55.431Z,20.21
2023-07-31T17:14:22.664Z,20.16
2023-07-31T17:16:49.560Z,20.12
2023-07-31T17:19:16.577Z,20.00
2023-07-31T17:21:43.571Z,19.99
2023-07-31T17:24:10.806Z,19.92
2023-07-31T17:26:38.416Z,19.87
2023-07-31T17:29:05.344Z,19.83
2023-07-31T17:31:32.346Z,19.78
2023-07-31T17:33:59.554Z,19.70
2023-07-31T17:36:26.682Z,19.71
2023-07-31T17:38:53.535Z,19.66
2023-07-31T17:41:21.118Z,19.63
2023-07-31T17:43:48.101Z,19.62
2023-07-31T17:46:15.884Z,19.68
2023-07-31T17:48:46.254Z,19.66
2023-07-31T17:51:13.230Z,19.72
2023-07-31T17:53:40.186Z,19.84
2023-07-31T17:56:07.264Z,19.89
2023-07-31T17:58:34.353Z,20.01
2023-07-31T18:01:01.608Z,20.22
2023-07-31T18:03:29.196Z,20.46
2023-07-31T18:05:56.152Z,20.53
2023-07-31T18:08:23.104Z,20.46
2023-07-31T18:10:50.657Z,20.26
2023-07-31T18:13:17.721Z,20.09
2023-07-31T18:15:48.375Z,19.97
2023-07-31T18:18:15.838Z,19.90
2023-07-31T18:20:42.831Z,19.85
2023-07-31T18:23:09.850Z,19.78
2023-07-31T18:25:37.018Z,19.72
2023-07-31T18:28:04.192Z,19.72
2023-07-31T18:30:35.412Z,19.69
2023-07-31T18:33:02.526Z,19.70
2023-07-31T18:35:29.958Z,19.70
2023-07-31T18:37:56.911Z,19.71
2023-07-31T18:40:24.477Z,19.69
2023-07-31T18:42:51.911Z,19.64
2023-07-31T18:45:18.937Z,19.64
2023-07-31T18:47:46.005Z,19.61
2023-07-31T18:50:12.957Z,19.59
2023-07-31T18:52:40.578Z,19.62
2023-07-31T18:55:08.082Z,19.56
2023-07-31T18:57:34.977Z,19.59
2023-07-31T19:00:02.290Z,19.49
2023-07-31T19:02:29.652Z,19.48
2023-07-31T19:04:56.562Z,19.34
2023-07-31T19:07:23.524Z,19.29
2023-07-31T19:10:00.205Z,19.29
2023-07-31T19:12:36.089Z,19.29
2023-07-31T19:15:03.498Z,19.33
2023-07-31T19:17:30.478Z,19.27
2023-07-31T19:19:57.590Z,19.29
2023-07-31T19:22:25.880Z,19.32
2023-07-31T19:24:53.005Z,19.27
2023-07-31T19:27:20.084Z,19.30
2023-07-31T19:29:47.515Z,19.21
2023-07-31T19:32:16.137Z,19.18
2023-07-31T19:34:43.563Z,19.04
2023-07-31T19:37:11.997Z,18.87
2023-07-31T19:39:39.228Z,18.73
2023-07-31T19:42:06.170Z,18.64
2023-07-31T19:44:33.194Z,18.56
2023-07-31T19:47:00.319Z,18.52
2023-07-31T19:49:28.773Z,18.40
2023-07-31T19:51:55.730Z,18.41
2023-07-31T19:54:23.035Z,18.40
2023-07-31T19:56:51.128Z,18.33
2023-07-31T19:59:21.488Z,18.26
2023-07-31T20:01:48.597Z,18.28
2023-07-31T20:04:15.620Z,18.20
2023-07-31T20:06:42.807Z,18.11
2023-07-31T20:09:11.002Z,18.06
2023-07-31T20:11:38.862Z,17.99
2023-07-31T20:14:07.089Z,17.94
2023-07-31T20:16:36.998Z,17.89
2023-07-31T20:19:04.031Z,17.88
2023-07-31T20:21:30.937Z,17.82
2023-07-31T20:24:00.664Z,17.81
2023-07-31T20:26:28.822Z,17.65
2023-07-31T20:28:58.421Z,17.60
2023-07-31T20:31:25.637Z,17.54
2023-07-31T20:33:53.022Z,17.54
2023-07-31T20:36:20.519Z,17.48
2023-07-31T20:38:47.621Z,17.41
2023-07-31T20:41:14.509Z,17.31
2023-07-31T20:43:41.389Z,17.26
2023-07-31T20:46:08.483Z,17.28
2023-07-31T20:48:38.406Z,17.27
2023-07-31T20:51:05.358Z,17.31
2023-07-31T20:53:32.347Z,17.43
2023-07-31T20:56:00.747Z,17.49
2023-07-31T20:58:27.794Z,17.58
2023-07-31T21:00:55.166Z,17.69
2023-07-31T21:03:22.392Z,17.79
2023-07-31T21:05:51.771Z,17.75
2023-07-31T21:08:18.938Z,17.71
2023-07-31T21:10:45.893Z,17.75
2023-07-31T21:13:13.098Z,17.71
2023-07-31T21:15:41.876Z,17.68
2023-07-31T21:18:09.555Z,17.61
2023-07-31T21:20:37.793Z,17.74
2023-07-31T21:23:09.336Z,17.75
2023-07-31T21:25:39.408Z,17.74
2023-07-31T21:28:06.539Z,17.83
2023-07-31T21:30:35.592Z,17.87
2023-07-31T21:33:02.800Z,17.86
2023-07-31T21:35:29.739Z,17.83
2023-07-31T21:37:57.157Z,17.80
2023-07-31T21:40:24.092Z,17.74
2023-07-31T21:42:51.781Z,17.73
2023-07-31T21:45:18.873Z,17.74
2023-07-31T21:47:45.966Z,17.73
2023-07-31T21:50:13.220Z,17.75
2023-07-31T21:52:40.698Z,17.72
2023-07-31T21:55:08.179Z,17.72
2023-07-31T21:57:36.523Z,17.76
2023-07-31T22:00:07.543Z,17.85
2023-07-31T22:02:34.806Z,17.88
2023-07-31T22:05:01.873Z,17.90
2023-07-31T22:07:29.050Z,17.80
2023-07-31T22:09:56.102Z,17.77
2023-07-31T22:12:26.353Z,17.80
2023-07-31T22:14:53.728Z,17.79
2023-07-31T22:17:20.744Z,17.75
2023-07-31T22:19:47.620Z,17.87
2023-07-31T22:22:14.712Z,17.79
2023-07-31T22:24:41.692Z,17.73
2023-07-31T22:27:08.582Z,17.66
2023-07-31T22:29:35.578Z,17.62
2023-07-31T22:32:02.599Z,17.63
2023-07-31T22:34:29.520Z,17.59
2023-07-31T22:36:56.548Z,17.69
2023-07-31T22:39:23.510Z,17.71
2023-07-31T22:41:50.768Z,17.71
2023-07-31T22:44:17.812Z,17.71
2023-07-31T22:46:45.195Z,17.69
2023-07-31T22:49:12.263Z,17.71
2023-07-31T22:51:39.682Z,17.68
2023-07-31T22:54:06.592Z,17.61
2023-07-31T22:56:33.482Z,17.58
2023-07-31T22:59:00.447Z,17.60
2023-07-31T23:01:28.718Z,17.52
2023-07-31T23:03:55.803Z,17.63
2023-07-31T23:06:22.878Z,17.61
2023-07-31T23:08:49.888Z,17.66
2023-07-31T23:11:17.273Z,17.59
2023-07-31T23:13:47.316Z,17.61
2023-07-31T23:16:14.159Z,17.68
2023-07-31T23:18:41.938Z,17.79
2023-07-31T23:21:09.067Z,17.69
2023-07-31T23:23:35.929Z,17.71
2023-07-31T23:26:02.877Z,17.69
2023-07-31T23:28:30.076Z,17.81
2023-07-31T23:31:03.741Z,17.79
2023-07-31T23:33:32.321Z,17.80
2023-07-31T23:36:08.165Z,17.77
2023-07-31T23:38:35.041Z,17.63
2023-07-31T23:41:02.021Z,17.63
2023-07-31T23:43:29.062Z,17.60
2023-07-31T23:45:56.078Z,17.58
2023-07-31T23:48:22.996Z,17.56
2023-07-31T23:50:52.685Z,17.43
2023-07-31T23:53:20.012Z,17.47
2023-07-31T23:55:47.259Z,17.39
2023-07-31T23:58:15.734Z,17.44
